Cmb Yasmine — VRIC4 — position and weather

sailwx.info

Track history (hours):
 
Tides and Currents Weather Stations Pressure Air Temp Water Temp Dewpoint Dewpoint Depression Visibility Wind Speed Wind Dir Waves Ship Positions

Cmb Yasmine

Last reported at 2017-Nov-09 00:02 UTC. Time now 2017-Nov-23 05:53 UTC.
Position N 27°40' W 015°13'.
Warning: this ship's position is 14 days out of date.

Length 180 m; draft 8.8 m.

Type: Cargo ship. MMSI: 477802800.

Date/timePositionNaut miles runAvg speedWind from/ knotsBaromVisibWave heightAir tempDewpointWater temp
2017-Nov-09 00:02N 27°40' W 015°13'113.0
2017-Nov-08 23:57N 27°41' W 015°13'613.1
2017-Nov-08 23:30N 27°47' W 015°13'612.4
2017-Nov-08 23:00N 27°53' W 015°14'612.1
2017-Nov-08 22:30N 27°59' W 015°15'612.0
2017-Nov-08 22:00N 28°04' W 015°19'510.7
2017-Nov-08 21:30N 28°07' W 015°24'2 2.9
2017-Nov-08 21:00N 28°08' W 015°25'0 0.0
2017-Nov-08 20:30N 28°08' W 015°25'0 0.0
2017-Nov-08 19:51N 28°08' W 015°25'0 0.0
2017-Nov-08 19:21N 28°08' W 015°25'0 0.0
2017-Nov-08 18:54N 28°08' W 015°25'0 0.0
2017-Nov-08 18:24N 28°08' W 015°25'0 0.0
2017-Nov-08 17:54N 28°08' W 015°25'0 0.0
2017-Nov-08 17:24N 28°08' W 015°25'0 0.0
2017-Nov-08 16:54N 28°08' W 015°25'0 0.0
2017-Nov-08 16:27N 28°08' W 015°25'0 0.0
2017-Nov-08 15:57N 28°08' W 015°25'0 0.7
2017-Nov-08 15:30N 28°08' W 015°25'2 2.8
2017-Nov-08 14:55N 28°07' W 015°24'0 0.1
2017-Nov-08 14:28N 28°07' W 015°24'0 0.0
2017-Nov-08 13:58N 28°07' W 015°24'0 0.0
2017-Nov-08 13:28N 28°07' W 015°24'0 0.0
2017-Nov-08 12:58N 28°07' W 015°24'0 0.0
2017-Nov-08 12:28N 28°07' W 015°24'0 0.0
2017-Nov-08 11:58N 28°07' W 015°24'0 0.0
2017-Nov-08 11:28N 28°07' W 015°24'0 0.1
2017-Nov-08 10:58N 28°07' W 015°24'0 0.8
2017-Nov-08 10:30N 28°07' W 015°24'2 3.4
2017-Nov-08 10:00N 28°06' W 015°22'1 2.5
2017-Nov-08 09:30N 28°06' W 015°21'0 0.7
2017-Nov-08 09:00N 28°06' W 015°21'1 1.2
2017-Nov-08 08:30N 28°05' W 015°21'3 5.8
2017-Nov-08 08:00N 28°05' W 015°17'612.2
2017-Nov-08 07:30N 28°11' W 015°15'612.5
2017-Nov-08 07:00N 28°17' W 015°13'612.4
2017-Nov-08 06:30N 28°23' W 015°11'611.9
2017-Nov-08 06:00N 28°29' W 015°09'611.9
2017-Nov-08 05:30N 28°34' W 015°06'612.3
2017-Nov-08 05:00N 28°40' W 015°04'612.3
2017-Nov-08 04:30N 28°46' W 015°02'612.3
2017-Nov-08 04:00N 28°52' W 014°59'712.2
2017-Nov-08 03:26N 28°58' W 014°57'611.9
2017-Nov-08 02:59N 29°03' W 014°55'1212.0
2017-Nov-08 01:56N 29°15' W 014°50'612.1
2017-Nov-08 01:28N 29°21' W 014°48'  
2017-Nov-03 18:56N 46°01' W 001°53'512.7
2017-Nov-03 18:30N 46°05' W 001°47'612.4
2017-Nov-03 18:00N 46°08' W 001°40'913.3
2017-Nov-03 17:22N 46°07' W 001°28'513.8
2017-Nov-03 17:00N 46°06' W 001°20'4 8.6
2017-Nov-03 16:30N 46°08' W 001°15'1 2.8
2017-Nov-03 15:59N 46°09' W 001°14'0 0.0
2017-Nov-03 15:29N 46°10' W 001°14'0 0.0
2017-Nov-03 14:59N 46°10' W 001°14'0 0.0
2017-Nov-03 14:29N 46°10' W 001°14'0 0.0
2017-Nov-03 13:59N 46°10' W 001°14'0 0.0
2017-Nov-03 13:29N 46°09' W 001°14'0 0.0
2017-Nov-03 12:59N 46°10' W 001°14'0 0.0
2017-Nov-03 12:29N 46°10' W 001°14'0 0.0
2017-Nov-03 11:59N 46°10' W 001°14'0 0.0
2017-Nov-03 11:29N 46°10' W 001°14'0 0.0
2017-Nov-03 10:59N 46°10' W 001°14'0 0.0
2017-Nov-03 10:29N 46°10' W 001°14'0 0.0
2017-Nov-03 09:59N 46°09' W 001°14'0 0.0
2017-Nov-03 09:29N 46°10' W 001°14'0 0.0
2017-Nov-03 08:59N 46°10' W 001°14'0 0.0
2017-Nov-03 08:29N 46°10' W 001°14'0 0.0
2017-Nov-03 07:59N 46°10' W 001°14'0 0.0
2017-Nov-03 07:29N 46°10' W 001°14'0 0.0
2017-Nov-03 06:53N 46°10' W 001°14'0 0.0
2017-Nov-03 06:29N 46°09' W 001°14'0 0.0
2017-Nov-03 05:59N 46°09' W 001°14'0 0.0
2017-Nov-03 05:29N 46°10' W 001°14'0 0.0
2017-Nov-03 04:59N 46°10' W 001°14'0 0.0
2017-Nov-03 04:29N 46°10' W 001°14'0 0.0
2017-Nov-03 03:56N 46°10' W 001°14'0 0.0
2017-Nov-03 03:29N 46°09' W 001°14'0 0.0
2017-Nov-03 02:59N 46°09' W 001°14'0 0.0
2017-Nov-03 02:29N 46°10' W 001°14'0 0.0
2017-Nov-03 01:59N 46°10' W 001°14'0 0.0
2017-Nov-03 01:29N 46°10' W 001°14'0 0.0
2017-Nov-03 00:59N 46°09' W 001°14'0 0.0
2017-Nov-03 00:29N 46°09' W 001°14'0 0.0
2017-Nov-02 23:59N 46°10' W 001°14'0 0.0
2017-Nov-02 23:29N 46°10' W 001°14'0 0.0
2017-Nov-02 22:59N 46°10' W 001°14'0 0.0
2017-Nov-02 22:29N 46°10' W 001°14'0 0.0
2017-Nov-02 21:59N 46°10' W 001°14'0 0.0
2017-Nov-02 21:29N 46°10' W 001°14'0 0.0
2017-Nov-02 20:59N 46°10' W 001°14'0 0.0
2017-Nov-02 20:29N 46°10' W 001°14'0 0.0
2017-Nov-02 19:59N 46°10' W 001°14'0 0.0
2017-Nov-02 19:29N 46°10' W 001°14'0 0.0
2017-Nov-02 18:59N 46°10' W 001°14'0 0.0
2017-Nov-02 18:26N 46°10' W 001°14'0 0.0
2017-Nov-02 17:59N 46°10' W 001°14'0 0.0
2017-Nov-02 17:29N 46°10' W 001°14'0 0.0
2017-Nov-02 16:59N 46°10' W 001°14'0 0.0
2017-Nov-02 16:29N 46°10' W 001°14'0 0.0
2017-Nov-02 15:59N 46°09' W 001°14'0 0.0
2017-Nov-02 15:29N 46°10' W 001°14'0 0.0
2017-Nov-02 14:59N 46°10' W 001°14'0 0.0
2017-Nov-02 14:29N 46°10' W 001°14'0 0.0
2017-Nov-02 13:59N 46°09' W 001°14'0 0.0
2017-Nov-02 13:29N 46°10' W 001°14'0 0.0
2017-Nov-02 12:59N 46°10' W 001°14'0 0.0
2017-Nov-02 12:29N 46°10' W 001°14'0 0.0
2017-Nov-02 11:59N 46°10' W 001°14'0 0.0
2017-Nov-02 11:29N 46°10' W 001°14'0 0.0
2017-Nov-02 10:56N 46°10' W 001°14'0 0.0
2017-Nov-02 10:29N 46°10' W 001°14'0 0.0
2017-Nov-02 09:59N 46°10' W 001°14'0 0.0
2017-Nov-02 09:29N 46°10' W 001°14'0 0.0
2017-Nov-02 08:59N 46°10' W 001°14'0 0.0
2017-Nov-02 08:29N 46°10' W 001°14'0 0.0
2017-Nov-02 07:59N 46°09' W 001°14'0 0.0
2017-Nov-02 07:29N 46°10' W 001°14'0 0.0
2017-Nov-02 06:59N 46°10' W 001°14'0 0.0
2017-Nov-02 06:29N 46°10' W 001°14'0 0.0
2017-Nov-02 05:59N 46°09' W 001°14'0 0.0
2017-Nov-02 05:29N 46°10' W 001°14'0 0.0
2017-Nov-02 04:59N 46°10' W 001°14'0 0.0
2017-Nov-02 04:29N 46°10' W 001°14'0 0.0
2017-Nov-02 03:59N 46°10' W 001°14'0 0.0
2017-Nov-02 03:29N 46°10' W 001°14'0 0.0
2017-Nov-02 02:59N 46°10' W 001°14'0 0.0
2017-Nov-02 02:29N 46°10' W 001°14'0 0.0
2017-Nov-02 01:59N 46°10' W 001°14'0 0.0
2017-Nov-02 01:29N 46°10' W 001°14'0 0.0
2017-Nov-02 00:59N 46°10' W 001°14'0 0.0
2017-Nov-02 00:28N 46°10' W 001°14'0 0.0
2017-Nov-01 23:59N 46°10' W 001°14'0 0.0
2017-Nov-01 23:28N 46°09' W 001°14'0 0.0
2017-Nov-01 22:56N 46°10' W 001°14'0 0.0
2017-Nov-01 22:29N 46°10' W 001°14'0 0.0
2017-Nov-01 21:59N 46°10' W 001°14'0 0.0
2017-Nov-01 21:29N 46°10' W 001°14'0 0.0
2017-Nov-01 20:59N 46°10' W 001°14'0 0.0
2017-Nov-01 20:29N 46°10' W 001°14'0 0.0
2017-Nov-01 19:59N 46°10' W 001°14'0 0.0
2017-Nov-01 19:29N 46°10' W 001°14'0 0.0
2017-Nov-01 18:56N 46°10' W 001°14'0 0.0
2017-Nov-01 18:29N 46°10' W 001°14'0 0.0
2017-Nov-01 01:58N 46°10' W 001°14'0 0.0
2017-Nov-01 01:28N 46°10' W 001°14'0 0.0
2017-Nov-01 00:55N 46°10' W 001°14'0 0.0
2017-Nov-01 00:28N 46°10' W 001°14'0 0.0
2017-Oct-31 23:58N 46°10' W 001°14'0 0.0
2017-Oct-31 23:28N 46°10' W 001°14'0 0.0
2017-Oct-31 22:58N 46°10' W 001°14'0 0.0
2017-Oct-31 22:28N 46°10' W 001°14'0 0.0
2017-Oct-31 21:58N 46°10' W 001°14'0 0.0
2017-Oct-31 21:28N 46°10' W 001°14'0 0.0
2017-Oct-31 20:55N 46°10' W 001°14'0 0.0
2017-Oct-31 20:28N 46°10' W 001°14'0 0.0
2017-Oct-31 19:58N 46°10' W 001°14'0 0.0
2017-Oct-31 19:28N 46°10' W 001°14'0 0.0
2017-Oct-31 18:58N 46°10' W 001°14'0 0.0
2017-Oct-31 18:25N 46°10' W 001°14'0 0.0
2017-Oct-31 17:55N 46°10' W 001°14'0 0.0
2017-Oct-31 17:28N 46°10' W 001°14'0 0.0
2017-Oct-31 16:58N 46°10' W 001°14'0 0.0
2017-Oct-31 16:28N 46°10' W 001°14'0 0.0
2017-Oct-31 15:58N 46°10' W 001°14'0 0.0
2017-Oct-31 15:28N 46°10' W 001°14'0 0.0
2017-Oct-31 14:55N 46°10' W 001°14'0 0.0
2017-Oct-31 14:28N 46°10' W 001°14'0 0.0
2017-Oct-31 13:58N 46°10' W 001°14'0 0.0
2017-Oct-31 13:25N 46°10' W 001°14'0 0.0
2017-Oct-31 12:58N 46°10' W 001°14'0 0.0
2017-Oct-31 12:28N 46°10' W 001°14'0 0.0
2017-Oct-31 11:58N 46°10' W 001°14'0 0.0
2017-Oct-31 11:28N 46°10' W 001°14'0 0.0
2017-Oct-31 10:58N 46°10' W 001°14'0 0.0
2017-Oct-31 10:28N 46°10' W 001°14'0 0.0
2017-Oct-31 09:58N 46°10' W 001°14'0 0.0
2017-Oct-31 09:22N 46°10' W 001°14'0 0.5
2017-Oct-31 09:00N 46°09' W 001°14'3 6.5
2017-Oct-31 08:30N 46°06' W 001°16'1 2.4
2017-Oct-31 07:58N 46°05' W 001°15'0 0.2
2017-Oct-31 07:28N 46°05' W 001°15'0 0.0
2017-Oct-31 06:58N 46°05' W 001°15'0 0.0
2017-Oct-31 06:28N 46°05' W 001°15'0 0.0
2017-Oct-31 05:58N 46°05' W 001°15'0 0.0
2017-Oct-31 05:28N 46°05' W 001°15'0 0.0
2017-Oct-31 04:58N 46°05' W 001°15'0 0.0
2017-Oct-31 04:28N 46°05' W 001°15'0 0.0
2017-Oct-31 03:58N 46°05' W 001°15'0 0.0
2017-Oct-31 03:28N 46°05' W 001°15'0 0.0
2017-Oct-31 02:52N 46°05' W 001°15'0 0.0
2017-Oct-31 02:28N 46°05' W 001°15'0 0.0
2017-Oct-31 01:55N 46°05' W 001°15'0 0.0
2017-Oct-31 01:28N 46°05' W 001°15'0 0.0
2017-Oct-31 00:58N 46°05' W 001°15'0 0.0
2017-Oct-31 00:28N 46°05' W 001°15'0 0.0
2017-Oct-30 23:58N 46°05' W 001°15'0 0.0
2017-Oct-30 23:28N 46°05' W 001°15'0 0.0
2017-Oct-30 22:58N 46°05' W 001°15'0 0.0
2017-Oct-30 22:28N 46°05' W 001°15'0 0.0
2017-Oct-30 21:58N 46°05' W 001°15'0 0.0
2017-Oct-30 21:28N 46°05' W 001°15'0 0.0
2017-Oct-30 20:58N 46°05' W 001°15'0 0.0
2017-Oct-30 20:25N 46°05' W 001°15'0 0.0
2017-Oct-30 19:58N 46°05' W 001°15'0 0.0
2017-Oct-30 19:28N 46°05' W 001°15'0 0.0
2017-Oct-30 18:58N 46°05' W 001°15'0 0.0
2017-Oct-30 18:28N 46°05' W 001°15'0 0.0
2017-Oct-30 17:58N 46°05' W 001°15'0 0.0
2017-Oct-30 17:28N 46°05' W 001°15'0 0.0
2017-Oct-30 16:58N 46°05' W 001°15'0 0.0
2017-Oct-30 16:28N 46°05' W 001°15'0 0.0
2017-Oct-30 15:58N 46°05' W 001°15'0 0.0
2017-Oct-30 15:28N 46°05' W 001°15'0 0.0
2017-Oct-30 14:58N 46°05' W 001°15'0 0.0
2017-Oct-30 13:58N 46°05' W 001°15'0 0.0
2017-Oct-30 13:28N 46°05' W 001°15'0 0.1
2017-Oct-30 12:58N 46°05' W 001°15'0 0.1
2017-Oct-30 12:28N 46°05' W 001°15'0 0.1
2017-Oct-30 11:58N 46°05' W 001°15'0 0.1
2017-Oct-30 11:28N 46°05' W 001°15'0 0.0
2017-Oct-30 11:01N 46°05' W 001°15'0 0.0
2017-Oct-30 10:28N 46°05' W 001°15'0 0.0
2017-Oct-30 09:58N 46°05' W 001°15'0 0.0
2017-Oct-30 09:28N 46°05' W 001°15'0 0.0
2017-Oct-30 08:58N 46°05' W 001°15'0 0.0
2017-Oct-30 08:28N 46°05' W 001°15'0 0.0
2017-Oct-30 07:52N 46°05' W 001°15'0 0.0
2017-Oct-30 07:28N 46°05' W 001°15'0 0.0
2017-Oct-30 06:58N 46°05' W 001°15'0 0.0
2017-Oct-30 06:28N 46°05' W 001°15'0 0.0
2017-Oct-30 05:58N 46°05' W 001°15'0 0.0
2017-Oct-30 05:31N 46°05' W 001°15'0 0.0
2017-Oct-30 04:58N 46°05' W 001°15'0 0.0
2017-Oct-30 04:28N 46°05' W 001°15'0 0.0
2017-Oct-30 03:58N 46°05' W 001°15'0 0.0
2017-Oct-30 03:28N 46°05' W 001°15'0 0.0
2017-Oct-30 02:58N 46°05' W 001°15'0 0.0
2017-Oct-30 02:31N 46°05' W 001°15'0 0.0
2017-Oct-30 01:57N 46°05' W 001°15'0 0.1
2017-Oct-30 01:28N 46°05' W 001°15'0 0.2
2017-Oct-30 01:01N 46°05' W 001°15'0 0.0
2017-Oct-30 00:28N 46°05' W 001°15'  
Track history (hours):
 
Tides and Currents Weather Stations Pressure Air Temp Water Temp Dewpoint Dewpoint Depression Visibility Wind Speed Wind Dir Waves Ship Positions

Cmb Yasmine

Last reported at 2017-Nov-09 00:02 UTC. Time now 2017-Nov-23 05:53 UTC.
Position N 27°40' W 015°13'.
Warning: this ship's position is 14 days out of date.

Length 180 m; draft 8.8 m.

Type: Cargo ship. MMSI: 477802800.

Date/timePositionNaut miles runAvg speedWind from/ knotsBaromVisibWave heightAir tempDewpointWater temp
2017-Nov-09 00:02N 27°40' W 015°13'113.0
2017-Nov-08 23:57N 27°41' W 015°13'613.1
2017-Nov-08 23:30N 27°47' W 015°13'612.4
2017-Nov-08 23:00N 27°53' W 015°14'612.1
2017-Nov-08 22:30N 27°59' W 015°15'612.0
2017-Nov-08 22:00N 28°04' W 015°19'510.7
2017-Nov-08 21:30N 28°07' W 015°24'2 2.9
2017-Nov-08 21:00N 28°08' W 015°25'0 0.0
2017-Nov-08 20:30N 28°08' W 015°25'0 0.0
2017-Nov-08 19:51N 28°08' W 015°25'0 0.0
2017-Nov-08 19:21N 28°08' W 015°25'0 0.0
2017-Nov-08 18:54N 28°08' W 015°25'0 0.0
2017-Nov-08 18:24N 28°08' W 015°25'0 0.0
2017-Nov-08 17:54N 28°08' W 015°25'0 0.0
2017-Nov-08 17:24N 28°08' W 015°25'0 0.0
2017-Nov-08 16:54N 28°08' W 015°25'0 0.0
2017-Nov-08 16:27N 28°08' W 015°25'0 0.0
2017-Nov-08 15:57N 28°08' W 015°25'0 0.7
2017-Nov-08 15:30N 28°08' W 015°25'2 2.8
2017-Nov-08 14:55N 28°07' W 015°24'0 0.1
2017-Nov-08 14:28N 28°07' W 015°24'0 0.0
2017-Nov-08 13:58N 28°07' W 015°24'0 0.0
2017-Nov-08 13:28N 28°07' W 015°24'0 0.0
2017-Nov-08 12:58N 28°07' W 015°24'0 0.0
2017-Nov-08 12:28N 28°07' W 015°24'0 0.0
2017-Nov-08 11:58N 28°07' W 015°24'0 0.0
2017-Nov-08 11:28N 28°07' W 015°24'0 0.1
2017-Nov-08 10:58N 28°07' W 015°24'0 0.8
2017-Nov-08 10:30N 28°07' W 015°24'2 3.4
2017-Nov-08 10:00N 28°06' W 015°22'1 2.5
2017-Nov-08 09:30N 28°06' W 015°21'0 0.7
2017-Nov-08 09:00N 28°06' W 015°21'1 1.2
2017-Nov-08 08:30N 28°05' W 015°21'3 5.8
2017-Nov-08 08:00N 28°05' W 015°17'612.2
2017-Nov-08 07:30N 28°11' W 015°15'612.5
2017-Nov-08 07:00N 28°17' W 015°13'612.4
2017-Nov-08 06:30N 28°23' W 015°11'611.9
2017-Nov-08 06:00N 28°29' W 015°09'611.9
2017-Nov-08 05:30N 28°34' W 015°06'612.3
2017-Nov-08 05:00N 28°40' W 015°04'612.3
2017-Nov-08 04:30N 28°46' W 015°02'612.3
2017-Nov-08 04:00N 28°52' W 014°59'712.2
2017-Nov-08 03:26N 28°58' W 014°57'611.9
2017-Nov-08 02:59N 29°03' W 014°55'1212.0
2017-Nov-08 01:56N 29°15' W 014°50'612.1
2017-Nov-08 01:28N 29°21' W 014°48'  
2017-Nov-03 18:56N 46°01' W 001°53'512.7
2017-Nov-03 18:30N 46°05' W 001°47'612.4
2017-Nov-03 18:00N 46°08' W 001°40'913.3
2017-Nov-03 17:22N 46°07' W 001°28'513.8
2017-Nov-03 17:00N 46°06' W 001°20'4 8.6
2017-Nov-03 16:30N 46°08' W 001°15'1 2.8
2017-Nov-03 15:59N 46°09' W 001°14'0 0.0
2017-Nov-03 15:29N 46°10' W 001°14'0 0.0
2017-Nov-03 14:59N 46°10' W 001°14'0 0.0
2017-Nov-03 14:29N 46°10' W 001°14'0 0.0
2017-Nov-03 13:59N 46°10' W 001°14'0 0.0
2017-Nov-03 13:29N 46°09' W 001°14'0 0.0
2017-Nov-03 12:59N 46°10' W 001°14'0 0.0
2017-Nov-03 12:29N 46°10' W 001°14'0 0.0
2017-Nov-03 11:59N 46°10' W 001°14'0 0.0
2017-Nov-03 11:29N 46°10' W 001°14'0 0.0
2017-Nov-03 10:59N 46°10' W 001°14'0 0.0
2017-Nov-03 10:29N 46°10' W 001°14'0 0.0
2017-Nov-03 09:59N 46°09' W 001°14'0 0.0
2017-Nov-03 09:29N 46°10' W 001°14'0 0.0
2017-Nov-03 08:59N 46°10' W 001°14'0 0.0
2017-Nov-03 08:29N 46°10' W 001°14'0 0.0
2017-Nov-03 07:59N 46°10' W 001°14'0 0.0
2017-Nov-03 07:29N 46°10' W 001°14'0 0.0
2017-Nov-03 06:53N 46°10' W 001°14'0 0.0
2017-Nov-03 06:29N 46°09' W 001°14'0 0.0
2017-Nov-03 05:59N 46°09' W 001°14'0 0.0
2017-Nov-03 05:29N 46°10' W 001°14'0 0.0
2017-Nov-03 04:59N 46°10' W 001°14'0 0.0
2017-Nov-03 04:29N 46°10' W 001°14'0 0.0
2017-Nov-03 03:56N 46°10' W 001°14'0 0.0
2017-Nov-03 03:29N 46°09' W 001°14'0 0.0
2017-Nov-03 02:59N 46°09' W 001°14'0 0.0
2017-Nov-03 02:29N 46°10' W 001°14'0 0.0
2017-Nov-03 01:59N 46°10' W 001°14'0 0.0
2017-Nov-03 01:29N 46°10' W 001°14'0 0.0
2017-Nov-03 00:59N 46°09' W 001°14'0 0.0
2017-Nov-03 00:29N 46°09' W 001°14'0 0.0
2017-Nov-02 23:59N 46°10' W 001°14'0 0.0
2017-Nov-02 23:29N 46°10' W 001°14'0 0.0
2017-Nov-02 22:59N 46°10' W 001°14'0 0.0
2017-Nov-02 22:29N 46°10' W 001°14'0 0.0
2017-Nov-02 21:59N 46°10' W 001°14'0 0.0
2017-Nov-02 21:29N 46°10' W 001°14'0 0.0
2017-Nov-02 20:59N 46°10' W 001°14'0 0.0
2017-Nov-02 20:29N 46°10' W 001°14'0 0.0
2017-Nov-02 19:59N 46°10' W 001°14'0 0.0
2017-Nov-02 19:29N 46°10' W 001°14'0 0.0
2017-Nov-02 18:59N 46°10' W 001°14'0 0.0
2017-Nov-02 18:26N 46°10' W 001°14'0 0.0
2017-Nov-02 17:59N 46°10' W 001°14'0 0.0
2017-Nov-02 17:29N 46°10' W 001°14'0 0.0
2017-Nov-02 16:59N 46°10' W 001°14'0 0.0
2017-Nov-02 16:29N 46°10' W 001°14'0 0.0
2017-Nov-02 15:59N 46°09' W 001°14'0 0.0
2017-Nov-02 15:29N 46°10' W 001°14'0 0.0
2017-Nov-02 14:59N 46°10' W 001°14'0 0.0
2017-Nov-02 14:29N 46°10' W 001°14'0 0.0
2017-Nov-02 13:59N 46°09' W 001°14'0 0.0
2017-Nov-02 13:29N 46°10' W 001°14'0 0.0
2017-Nov-02 12:59N 46°10' W 001°14'0 0.0
2017-Nov-02 12:29N 46°10' W 001°14'0 0.0
2017-Nov-02 11:59N 46°10' W 001°14'0 0.0
2017-Nov-02 11:29N 46°10' W 001°14'0 0.0
2017-Nov-02 10:56N 46°10' W 001°14'0 0.0
2017-Nov-02 10:29N 46°10' W 001°14'0 0.0
2017-Nov-02 09:59N 46°10' W 001°14'0 0.0
2017-Nov-02 09:29N 46°10' W 001°14'0 0.0
2017-Nov-02 08:59N 46°10' W 001°14'0 0.0
2017-Nov-02 08:29N 46°10' W 001°14'0 0.0
2017-Nov-02 07:59N 46°09' W 001°14'0 0.0
2017-Nov-02 07:29N 46°10' W 001°14'0 0.0
2017-Nov-02 06:59N 46°10' W 001°14'0 0.0
2017-Nov-02 06:29N 46°10' W 001°14'0 0.0
2017-Nov-02 05:59N 46°09' W 001°14'0 0.0
2017-Nov-02 05:29N 46°10' W 001°14'0 0.0
2017-Nov-02 04:59N 46°10' W 001°14'0 0.0
2017-Nov-02 04:29N 46°10' W 001°14'0 0.0
2017-Nov-02 03:59N 46°10' W 001°14'0 0.0
2017-Nov-02 03:29N 46°10' W 001°14'0 0.0
2017-Nov-02 02:59N 46°10' W 001°14'0 0.0
2017-Nov-02 02:29N 46°10' W 001°14'0 0.0
2017-Nov-02 01:59N 46°10' W 001°14'0 0.0
2017-Nov-02 01:29N 46°10' W 001°14'0 0.0
2017-Nov-02 00:59N 46°10' W 001°14'0 0.0
2017-Nov-02 00:28N 46°10' W 001°14'0 0.0
2017-Nov-01 23:59N 46°10' W 001°14'0 0.0
2017-Nov-01 23:28N 46°09' W 001°14'0 0.0
2017-Nov-01 22:56N 46°10' W 001°14'0 0.0
2017-Nov-01 22:29N 46°10' W 001°14'0 0.0
2017-Nov-01 21:59N 46°10' W 001°14'0 0.0
2017-Nov-01 21:29N 46°10' W 001°14'0 0.0
2017-Nov-01 20:59N 46°10' W 001°14'0 0.0
2017-Nov-01 20:29N 46°10' W 001°14'0 0.0
2017-Nov-01 19:59N 46°10' W 001°14'0 0.0
2017-Nov-01 19:29N 46°10' W 001°14'0 0.0
2017-Nov-01 18:56N 46°10' W 001°14'0 0.0
2017-Nov-01 18:29N 46°10' W 001°14'0 0.0
2017-Nov-01 01:58N 46°10' W 001°14'0 0.0
2017-Nov-01 01:28N 46°10' W 001°14'0 0.0
2017-Nov-01 00:55N 46°10' W 001°14'0 0.0
2017-Nov-01 00:28N 46°10' W 001°14'0 0.0
2017-Oct-31 23:58N 46°10' W 001°14'0 0.0
2017-Oct-31 23:28N 46°10' W 001°14'0 0.0
2017-Oct-31 22:58N 46°10' W 001°14'0 0.0
2017-Oct-31 22:28N 46°10' W 001°14'0 0.0
2017-Oct-31 21:58N 46°10' W 001°14'0 0.0
2017-Oct-31 21:28N 46°10' W 001°14'0 0.0
2017-Oct-31 20:55N 46°10' W 001°14'0 0.0
2017-Oct-31 20:28N 46°10' W 001°14'0 0.0
2017-Oct-31 19:58N 46°10' W 001°14'0 0.0
2017-Oct-31 19:28N 46°10' W 001°14'0 0.0
2017-Oct-31 18:58N 46°10' W 001°14'0 0.0
2017-Oct-31 18:25N 46°10' W 001°14'0 0.0
2017-Oct-31 17:55N 46°10' W 001°14'0 0.0
2017-Oct-31 17:28N 46°10' W 001°14'0 0.0
2017-Oct-31 16:58N 46°10' W 001°14'0 0.0
2017-Oct-31 16:28N 46°10' W 001°14'0 0.0
2017-Oct-31 15:58N 46°10' W 001°14'0 0.0
2017-Oct-31 15:28N 46°10' W 001°14'0 0.0
2017-Oct-31 14:55N 46°10' W 001°14'0 0.0
2017-Oct-31 14:28N 46°10' W 001°14'0 0.0
2017-Oct-31 13:58N 46°10' W 001°14'0 0.0
2017-Oct-31 13:25N 46°10' W 001°14'0 0.0
2017-Oct-31 12:58N 46°10' W 001°14'0 0.0
2017-Oct-31 12:28N 46°10' W 001°14'0 0.0
2017-Oct-31 11:58N 46°10' W 001°14'0 0.0
2017-Oct-31 11:28N 46°10' W 001°14'0 0.0
2017-Oct-31 10:58N 46°10' W 001°14'0 0.0
2017-Oct-31 10:28N 46°10' W 001°14'0 0.0
2017-Oct-31 09:58N 46°10' W 001°14'0 0.0
2017-Oct-31 09:22N 46°10' W 001°14'0 0.5
2017-Oct-31 09:00N 46°09' W 001°14'3 6.5
2017-Oct-31 08:30N 46°06' W 001°16'1 2.4
2017-Oct-31 07:58N 46°05' W 001°15'0 0.2
2017-Oct-31 07:28N 46°05' W 001°15'0 0.0
2017-Oct-31 06:58N 46°05' W 001°15'0 0.0
2017-Oct-31 06:28N 46°05' W 001°15'0 0.0
2017-Oct-31 05:58N 46°05' W 001°15'0 0.0
2017-Oct-31 05:28N 46°05' W 001°15'0 0.0
2017-Oct-31 04:58N 46°05' W 001°15'0 0.0
2017-Oct-31 04:28N 46°05' W 001°15'0 0.0
2017-Oct-31 03:58N 46°05' W 001°15'0 0.0
2017-Oct-31 03:28N 46°05' W 001°15'0 0.0
2017-Oct-31 02:52N 46°05' W 001°15'0 0.0
2017-Oct-31 02:28N 46°05' W 001°15'0 0.0
2017-Oct-31 01:55N 46°05' W 001°15'0 0.0
2017-Oct-31 01:28N 46°05' W 001°15'0 0.0
2017-Oct-31 00:58N 46°05' W 001°15'0 0.0
2017-Oct-31 00:28N 46°05' W 001°15'0 0.0
2017-Oct-30 23:58N 46°05' W 001°15'0 0.0
2017-Oct-30 23:28N 46°05' W 001°15'0 0.0
2017-Oct-30 22:58N 46°05' W 001°15'0 0.0
2017-Oct-30 22:28N 46°05' W 001°15'0 0.0
2017-Oct-30 21:58N 46°05' W 001°15'0 0.0
2017-Oct-30 21:28N 46°05' W 001°15'0 0.0
2017-Oct-30 20:58N 46°05' W 001°15'0 0.0
2017-Oct-30 20:25N 46°05' W 001°15'0 0.0
2017-Oct-30 19:58N 46°05' W 001°15'0 0.0
2017-Oct-30 19:28N 46°05' W 001°15'0 0.0
2017-Oct-30 18:58N 46°05' W 001°15'0 0.0
2017-Oct-30 18:28N 46°05' W 001°15'0 0.0
2017-Oct-30 17:58N 46°05' W 001°15'0 0.0
2017-Oct-30 17:28N 46°05' W 001°15'0 0.0
2017-Oct-30 16:58N 46°05' W 001°15'0 0.0
2017-Oct-30 16:28N 46°05' W 001°15'0 0.0
2017-Oct-30 15:58N 46°05' W 001°15'0 0.0
2017-Oct-30 15:28N 46°05' W 001°15'0 0.0
2017-Oct-30 14:58N 46°05' W 001°15'0 0.0
2017-Oct-30 13:58N 46°05' W 001°15'0 0.0
2017-Oct-30 13:28N 46°05' W 001°15'0 0.1
2017-Oct-30 12:58N 46°05' W 001°15'0 0.1
2017-Oct-30 12:28N 46°05' W 001°15'0 0.1
2017-Oct-30 11:58N 46°05' W 001°15'0 0.1
2017-Oct-30 11:28N 46°05' W 001°15'0 0.0
2017-Oct-30 11:01N 46°05' W 001°15'0 0.0
2017-Oct-30 10:28N 46°05' W 001°15'0 0.0
2017-Oct-30 09:58N 46°05' W 001°15'0 0.0
2017-Oct-30 09:28N 46°05' W 001°15'0 0.0
2017-Oct-30 08:58N 46°05' W 001°15'0 0.0
2017-Oct-30 08:28N 46°05' W 001°15'0 0.0
2017-Oct-30 07:52N 46°05' W 001°15'0 0.0
2017-Oct-30 07:28N 46°05' W 001°15'0 0.0
2017-Oct-30 06:58N 46°05' W 001°15'0 0.0
2017-Oct-30 06:28N 46°05' W 001°15'0 0.0
2017-Oct-30 05:58N 46°05' W 001°15'0 0.0
2017-Oct-30 05:31N 46°05' W 001°15'0 0.0
2017-Oct-30 04:58N 46°05' W 001°15'0 0.0
2017-Oct-30 04:28N 46°05' W 001°15'0 0.0
2017-Oct-30 03:58N 46°05' W 001°15'0 0.0
2017-Oct-30 03:28N 46°05' W 001°15'0 0.0
2017-Oct-30 02:58N 46°05' W 001°15'0 0.0
2017-Oct-30 02:31N 46°05' W 001°15'0 0.0
2017-Oct-30 01:57N 46°05' W 001°15'0 0.1
2017-Oct-30 01:28N 46°05' W 001°15'0 0.2
2017-Oct-30 01:01N 46°05' W 001°15'0 0.0
2017-Oct-30 00:28N 46°05' W 001°15'  

Dump ship's entire track history